sensor_id;sensor_type;location;lat;lon;timestamp;P1;durP1;ratioP1;P2;durP2;ratioP2
20802;SDS011;10562;-33.856;151.182;2023-09-19T00:01:40;6.30;;;3.90;;
20802;SDS011;10562;-33.856;151.182;2023-09-19T00:04:11;5.47;;;3.95;;
20802;SDS011;10562;-33.856;151.182;2023-09-19T00:06:41;7.35;;;4.30;;
20802;SDS011;10562;-33.856;151.182;2023-09-19T00:09:14;7.82;;;4.20;;
20802;SDS011;10562;-33.856;151.182;2023-09-19T00:11:46;7.38;;;3.63;;
20802;SDS011;10562;-33.856;151.182;2023-09-19T00:14:19;5.90;;;4.10;;
20802;SDS011;10562;-33.856;151.182;2023-09-19T00:16:50;6.20;;;3.50;;
20802;SDS011;10562;-33.856;151.182;2023-09-19T00:19:21;5.40;;;3.80;;
20802;SDS011;10562;-33.856;151.182;2023-09-19T00:21:52;6.88;;;3.67;;
20802;SDS011;10562;-33.856;151.182;2023-09-19T00:24:23;4.93;;;3.85;;
20802;SDS011;10562;-33.856;151.182;2023-09-19T00:26:56;8.05;;;3.60;;
20802;SDS011;10562;-33.856;151.182;2023-09-19T00:29:27;7.80;;;4.00;;
20802;SDS011;10562;-33.856;151.182;2023-09-19T00:31:59;8.00;;;3.85;;
20802;SDS011;10562;-33.856;151.182;2023-09-19T00:34:31;6.88;;;4.18;;
20802;SDS011;10562;-33.856;151.182;2023-09-19T00:37:02;5.57;;;3.80;;
20802;SDS011;10562;-33.856;151.182;2023-09-19T00:39:33;8.52;;;3.80;;
20802;SDS011;10562;-33.856;151.182;2023-09-19T00:42:05;7.60;;;3.97;;
20802;SDS011;10562;-33.856;151.182;2023-09-19T00:44:36;7.22;;;4.10;;
20802;SDS011;10562;-33.856;151.182;2023-09-19T00:47:07;5.45;;;4.10;;
20802;SDS011;10562;-33.856;151.182;2023-09-19T00:49:41;5.78;;;3.90;;
20802;SDS011;10562;-33.856;151.182;2023-09-19T00:52:15;5.70;;;3.88;;
20802;SDS011;10562;-33.856;151.182;2023-09-19T00:54:46;5.35;;;3.85;;
20802;SDS011;10562;-33.856;151.182;2023-09-19T00:57:20;7.45;;;3.70;;
20802;SDS011;10562;-33.856;151.182;2023-09-19T00:59:51;6.35;;;3.80;;
20802;SDS011;10562;-33.856;151.182;2023-09-19T01:02:25;6.63;;;3.25;;
20802;SDS011;10562;-33.856;151.182;2023-09-19T01:04:57;8.48;;;3.80;;
20802;SDS011;10562;-33.856;151.182;2023-09-19T01:07:30;5.53;;;3.63;;
20802;SDS011;10562;-33.856;151.182;2023-09-19T01:10:02;7.10;;;3.70;;
20802;SDS011;10562;-33.856;151.182;2023-09-19T01:12:39;6.25;;;3.85;;
20802;SDS011;10562;-33.856;151.182;2023-09-19T01:15:22;7.60;;;3.50;;
20802;SDS011;10562;-33.856;151.182;2023-09-19T01:18:00;9.48;;;3.90;;
20802;SDS011;10562;-33.856;151.182;2023-09-19T01:20:40;9.23;;;4.00;;
20802;SDS011;10562;-33.856;151.182;2023-09-19T01:23:17;6.53;;;3.42;;
20802;SDS011;10562;-33.856;151.182;2023-09-19T01:26:07;5.18;;;3.80;;
20802;SDS011;10562;-33.856;151.182;2023-09-19T01:29:01;6.03;;;3.63;;
20802;SDS011;10562;-33.856;151.182;2023-09-19T01:31:49;5.55;;;3.50;;
20802;SDS011;10562;-33.856;151.182;2023-09-19T01:34:22;5.97;;;3.60;;
20802;SDS011;10562;-33.856;151.182;2023-09-19T01:36:53;8.85;;;3.90;;
20802;SDS011;10562;-33.856;151.182;2023-09-19T01:39:24;11.40;;;3.83;;
20802;SDS011;10562;-33.856;151.182;2023-09-19T01:41:56;7.55;;;3.83;;
20802;SDS011;10562;-33.856;151.182;2023-09-19T01:44:36;5.70;;;3.72;;
20802;SDS011;10562;-33.856;151.182;2023-09-19T01:47:17;6.85;;;3.75;;
20802;SDS011;10562;-33.856;151.182;2023-09-19T01:49:55;10.63;;;3.85;;
20802;SDS011;10562;-33.856;151.182;2023-09-19T01:52:36;7.10;;;4.55;;
20802;SDS011;10562;-33.856;151.182;2023-09-19T01:55:14;6.35;;;4.13;;
20802;SDS011;10562;-33.856;151.182;2023-09-19T01:57:49;7.72;;;4.30;;
20802;SDS011;10562;-33.856;151.182;2023-09-19T02:00:28;5.93;;;4.00;;
20802;SDS011;10562;-33.856;151.182;2023-09-19T02:03:03;9.80;;;4.00;;
20802;SDS011;10562;-33.856;151.182;2023-09-19T02:05:34;5.35;;;3.80;;
20802;SDS011;10562;-33.856;151.182;2023-09-19T02:08:06;5.85;;;3.58;;
20802;SDS011;10562;-33.856;151.182;2023-09-19T02:10:37;8.93;;;3.78;;
20802;SDS011;10562;-33.856;151.182;2023-09-19T02:13:08;7.43;;;3.80;;
20802;SDS011;10562;-33.856;151.182;2023-09-19T02:15:39;7.78;;;3.80;;
20802;SDS011;10562;-33.856;151.182;2023-09-19T02:18:12;10.05;;;3.97;;
20802;SDS011;10562;-33.856;151.182;2023-09-19T02:20:43;8.95;;;3.97;;
20802;SDS011;10562;-33.856;151.182;2023-09-19T02:23:14;8.35;;;3.55;;
20802;SDS011;10562;-33.856;151.182;2023-09-19T02:25:51;5.13;;;3.60;;
20802;SDS011;10562;-33.856;151.182;2023-09-19T02:28:23;6.93;;;3.60;;
20802;SDS011;10562;-33.856;151.182;2023-09-19T02:30:56;7.97;;;3.70;;
20802;SDS011;10562;-33.856;151.182;2023-09-19T02:33:28;6.30;;;3.50;;
20802;SDS011;10562;-33.856;151.182;2023-09-19T02:36:00;6.15;;;3.75;;
20802;SDS011;10562;-33.856;151.182;2023-09-19T02:38:31;5.05;;;3.60;;
20802;SDS011;10562;-33.856;151.182;2023-09-19T02:41:03;5.15;;;3.58;;
20802;SDS011;10562;-33.856;151.182;2023-09-19T02:43:34;8.85;;;3.78;;
20802;SDS011;10562;-33.856;151.182;2023-09-19T02:46:05;5.07;;;3.60;;
20802;SDS011;10562;-33.856;151.182;2023-09-19T02:48:39;7.70;;;3.95;;
20802;SDS011;10562;-33.856;151.182;2023-09-19T02:51:10;4.25;;;3.17;;
20802;SDS011;10562;-33.856;151.182;2023-09-19T02:53:41;6.10;;;3.83;;
20802;SDS011;10562;-33.856;151.182;2023-09-19T02:56:13;6.93;;;3.60;;
20802;SDS011;10562;-33.856;151.182;2023-09-19T02:58:44;6.65;;;3.50;;
20802;SDS011;10562;-33.856;151.182;2023-09-19T03:01:15;5.00;;;3.33;;
20802;SDS011;10562;-33.856;151.182;2023-09-19T03:03:48;5.03;;;3.42;;
20802;SDS011;10562;-33.856;151.182;2023-09-19T03:06:19;5.88;;;3.45;;
20802;SDS011;10562;-33.856;151.182;2023-09-19T03:08:50;4.28;;;3.50;;
20802;SDS011;10562;-33.856;151.182;2023-09-19T03:11:21;6.65;;;3.83;;
20802;SDS011;10562;-33.856;151.182;2023-09-19T03:13:52;6.72;;;3.47;;
20802;SDS011;10562;-33.856;151.182;2023-09-19T03:16:24;8.07;;;3.55;;
20802;SDS011;10562;-33.856;151.182;2023-09-19T03:18:57;5.88;;;3.85;;
20802;SDS011;10562;-33.856;151.182;2023-09-19T03:21:28;5.15;;;3.42;;
20802;SDS011;10562;-33.856;151.182;2023-09-19T03:23:59;4.60;;;3.42;;
20802;SDS011;10562;-33.856;151.182;2023-09-19T03:26:29;7.30;;;3.72;;
20802;SDS011;10562;-33.856;151.182;2023-09-19T03:29:03;9.30;;;3.60;;
20802;SDS011;10562;-33.856;151.182;2023-09-19T03:31:36;5.28;;;3.58;;
20802;SDS011;10562;-33.856;151.182;2023-09-19T03:34:09;7.70;;;3.90;;
20802;SDS011;10562;-33.856;151.182;2023-09-19T03:36:39;7.90;;;3.65;;
20802;SDS011;10562;-33.856;151.182;2023-09-19T03:39:10;6.72;;;3.72;;
20802;SDS011;10562;-33.856;151.182;2023-09-19T03:41:42;5.38;;;3.50;;
20802;SDS011;10562;-33.856;151.182;2023-09-19T03:44:13;6.47;;;3.90;;
20802;SDS011;10562;-33.856;151.182;2023-09-19T03:46:44;5.68;;;3.47;;
20802;SDS011;10562;-33.856;151.182;2023-09-19T03:49:16;10.23;;;3.70;;
20802;SDS011;10562;-33.856;151.182;2023-09-19T03:51:47;6.38;;;3.70;;
20802;SDS011;10562;-33.856;151.182;2023-09-19T03:54:18;7.93;;;3.33;;
20802;SDS011;10562;-33.856;151.182;2023-09-19T03:56:49;6.45;;;3.53;;
20802;SDS011;10562;-33.856;151.182;2023-09-19T03:59:19;6.97;;;3.72;;
20802;SDS011;10562;-33.856;151.182;2023-09-19T04:01:50;5.30;;;3.58;;
20802;SDS011;10562;-33.856;151.182;2023-09-19T04:04:25;6.40;;;3.83;;
20802;SDS011;10562;-33.856;151.182;2023-09-19T04:06:55;5.00;;;3.72;;
20802;SDS011;10562;-33.856;151.182;2023-09-19T04:09:26;7.35;;;4.00;;
20802;SDS011;10562;-33.856;151.182;2023-09-19T04:11:57;7.15;;;3.63;;
20802;SDS011;10562;-33.856;151.182;2023-09-19T04:14:28;7.28;;;3.60;;
20802;SDS011;10562;-33.856;151.182;2023-09-19T04:16:59;8.95;;;3.63;;
20802;SDS011;10562;-33.856;151.182;2023-09-19T04:19:33;8.95;;;3.70;;
20802;SDS011;10562;-33.856;151.182;2023-09-19T04:22:04;4.95;;;3.50;;
20802;SDS011;10562;-33.856;151.182;2023-09-19T04:24:35;6.75;;;3.63;;
20802;SDS011;10562;-33.856;151.182;2023-09-19T04:27:06;5.20;;;3.67;;
20802;SDS011;10562;-33.856;151.182;2023-09-19T04:29:38;6.10;;;3.67;;
20802;SDS011;10562;-33.856;151.182;2023-09-19T04:32:10;9.50;;;3.70;;
20802;SDS011;10562;-33.856;151.182;2023-09-19T04:34:43;5.97;;;3.55;;
20802;SDS011;10562;-33.856;151.182;2023-09-19T04:37:16;6.90;;;3.67;;
20802;SDS011;10562;-33.856;151.182;2023-09-19T04:39:47;4.53;;;3.40;;
20802;SDS011;10562;-33.856;151.182;2023-09-19T04:42:18;7.25;;;3.50;;
20802;SDS011;10562;-33.856;151.182;2023-09-19T04:44:50;6.20;;;3.42;;
20802;SDS011;10562;-33.856;151.182;2023-09-19T04:47:21;7.07;;;3.60;;
20802;SDS011;10562;-33.856;151.182;2023-09-19T04:49:54;6.82;;;3.53;;
20802;SDS011;10562;-33.856;151.182;2023-09-19T04:52:25;18.58;;;7.13;;
20802;SDS011;10562;-33.856;151.182;2023-09-19T04:54:57;18.30;;;7.15;;
20802;SDS011;10562;-33.856;151.182;2023-09-19T04:57:28;19.55;;;7.35;;
20802;SDS011;10562;-33.856;151.182;2023-09-19T04:59:59;21.25;;;7.53;;
20802;SDS011;10562;-33.856;151.182;2023-09-19T05:02:33;16.20;;;7.25;;
20802;SDS011;10562;-33.856;151.182;2023-09-19T05:05:06;19.38;;;7.38;;
20802;SDS011;10562;-33.856;151.182;2023-09-19T05:07:39;21.10;;;8.20;;
20802;SDS011;10562;-33.856;151.182;2023-09-19T05:10:11;21.88;;;7.95;;
20802;SDS011;10562;-33.856;151.182;2023-09-19T05:12:44;21.80;;;8.30;;
20802;SDS011;10562;-33.856;151.182;2023-09-19T05:15:18;22.80;;;9.38;;
20802;SDS011;10562;-33.856;151.182;2023-09-19T05:17:49;22.98;;;9.25;;
20802;SDS011;10562;-33.856;151.182;2023-09-19T05:20:23;22.33;;;9.18;;
20802;SDS011;10562;-33.856;151.182;2023-09-19T05:22:58;23.77;;;9.05;;
20802;SDS011;10562;-33.856;151.182;2023-09-19T05:25:31;32.50;;;9.35;;
20802;SDS011;10562;-33.856;151.182;2023-09-19T05:28:04;22.83;;;9.00;;
20802;SDS011;10562;-33.856;151.182;2023-09-19T05:30:36;24.98;;;8.85;;
20802;SDS011;10562;-33.856;151.182;2023-09-19T05:33:09;24.88;;;8.80;;
20802;SDS011;10562;-33.856;151.182;2023-09-19T05:35:42;22.70;;;8.55;;
20802;SDS011;10562;-33.856;151.182;2023-09-19T05:38:13;25.35;;;8.75;;
20802;SDS011;10562;-33.856;151.182;2023-09-19T05:40:45;22.23;;;8.40;;
20802;SDS011;10562;-33.856;151.182;2023-09-19T05:43:16;23.63;;;8.55;;
20802;SDS011;10562;-33.856;151.182;2023-09-19T05:45:46;25.10;;;8.13;;
20802;SDS011;10562;-33.856;151.182;2023-09-19T05:48:18;25.75;;;8.82;;
20802;SDS011;10562;-33.856;151.182;2023-09-19T05:50:50;22.65;;;8.63;;
20802;SDS011;10562;-33.856;151.182;2023-09-19T05:53:21;24.33;;;8.13;;
20802;SDS011;10562;-33.856;151.182;2023-09-19T05:55:52;24.60;;;8.00;;
20802;SDS011;10562;-33.856;151.182;2023-09-19T05:58:23;23.77;;;7.60;;
20802;SDS011;10562;-33.856;151.182;2023-09-19T06:00:54;20.95;;;7.50;;
20802;SDS011;10562;-33.856;151.182;2023-09-19T06:03:25;23.17;;;7.50;;
20802;SDS011;10562;-33.856;151.182;2023-09-19T06:05:59;22.95;;;7.28;;
20802;SDS011;10562;-33.856;151.182;2023-09-19T06:08:30;24.98;;;7.55;;
20802;SDS011;10562;-33.856;151.182;2023-09-19T06:11:01;24.85;;;6.97;;
20802;SDS011;10562;-33.856;151.182;2023-09-19T06:13:33;22.92;;;7.15;;
20802;SDS011;10562;-33.856;151.182;2023-09-19T06:16:05;19.88;;;7.10;;
20802;SDS011;10562;-33.856;151.182;2023-09-19T06:18:36;22.67;;;6.90;;
20802;SDS011;10562;-33.856;151.182;2023-09-19T06:21:09;18.88;;;6.40;;
20802;SDS011;10562;-33.856;151.182;2023-09-19T06:23:40;22.67;;;7.65;;
20802;SDS011;10562;-33.856;151.182;2023-09-19T06:26:11;23.05;;;7.00;;
20802;SDS011;10562;-33.856;151.182;2023-09-19T06:28:41;22.83;;;7.47;;
20802;SDS011;10562;-33.856;151.182;2023-09-19T06:31:12;21.55;;;6.65;;
20802;SDS011;10562;-33.856;151.182;2023-09-19T06:33:43;23.65;;;7.15;;
20802;SDS011;10562;-33.856;151.182;2023-09-19T06:36:16;24.23;;;7.05;;
20802;SDS011;10562;-33.856;151.182;2023-09-19T06:38:47;23.40;;;7.20;;
20802;SDS011;10562;-33.856;151.182;2023-09-19T06:41:19;19.90;;;7.18;;
20802;SDS011;10562;-33.856;151.182;2023-09-19T06:43:51;20.00;;;6.68;;
20802;SDS011;10562;-33.856;151.182;2023-09-19T06:46:21;22.55;;;6.72;;
20802;SDS011;10562;-33.856;151.182;2023-09-19T06:48:53;22.88;;;6.55;;
20802;SDS011;10562;-33.856;151.182;2023-09-19T06:51:25;22.00;;;7.15;;
20802;SDS011;10562;-33.856;151.182;2023-09-19T06:53:56;24.23;;;6.88;;
20802;SDS011;10562;-33.856;151.182;2023-09-19T06:56:27;22.67;;;6.72;;
20802;SDS011;10562;-33.856;151.182;2023-09-19T06:58:58;18.70;;;6.00;;
20802;SDS011;10562;-33.856;151.182;2023-09-19T07:01:29;24.42;;;6.97;;
20802;SDS011;10562;-33.856;151.182;2023-09-19T07:04:00;21.63;;;6.65;;
20802;SDS011;10562;-33.856;151.182;2023-09-19T07:06:33;17.25;;;6.55;;
20802;SDS011;10562;-33.856;151.182;2023-09-19T07:09:04;21.00;;;6.95;;
20802;SDS011;10562;-33.856;151.182;2023-09-19T07:11:36;18.88;;;7.47;;
20802;SDS011;10562;-33.856;151.182;2023-09-19T07:14:06;25.42;;;7.88;;
20802;SDS011;10562;-33.856;151.182;2023-09-19T07:16:38;24.48;;;6.82;;
20802;SDS011;10562;-33.856;151.182;2023-09-19T07:19:10;24.20;;;7.13;;
20802;SDS011;10562;-33.856;151.182;2023-09-19T07:21:44;20.05;;;6.63;;
20802;SDS011;10562;-33.856;151.182;2023-09-19T07:24:16;19.33;;;6.82;;
20802;SDS011;10562;-33.856;151.182;2023-09-19T07:26:48;24.77;;;7.00;;
20802;SDS011;10562;-33.856;151.182;2023-09-19T07:29:19;21.77;;;6.80;;
20802;SDS011;10562;-33.856;151.182;2023-09-19T07:31:50;23.25;;;7.13;;
20802;SDS011;10562;-33.856;151.182;2023-09-19T07:34:20;24.10;;;7.07;;
20802;SDS011;10562;-33.856;151.182;2023-09-19T07:36:53;26.98;;;7.32;;
20802;SDS011;10562;-33.856;151.182;2023-09-19T07:39:24;25.40;;;6.63;;
20802;SDS011;10562;-33.856;151.182;2023-09-19T07:41:55;21.83;;;7.00;;
20802;SDS011;10562;-33.856;151.182;2023-09-19T07:44:27;20.05;;;7.18;;
20802;SDS011;10562;-33.856;151.182;2023-09-19T07:46:58;23.77;;;7.07;;
20802;SDS011;10562;-33.856;151.182;2023-09-19T07:49:29;19.88;;;6.72;;
20802;SDS011;10562;-33.856;151.182;2023-09-19T07:52:02;22.48;;;6.35;;
20802;SDS011;10562;-33.856;151.182;2023-09-19T07:54:33;22.83;;;6.80;;
20802;SDS011;10562;-33.856;151.182;2023-09-19T07:57:05;20.10;;;6.72;;
20802;SDS011;10562;-33.856;151.182;2023-09-19T07:59:36;21.00;;;6.47;;
20802;SDS011;10562;-33.856;151.182;2023-09-19T08:02:08;25.58;;;7.15;;
20802;SDS011;10562;-33.856;151.182;2023-09-19T08:04:42;25.67;;;6.55;;
20802;SDS011;10562;-33.856;151.182;2023-09-19T08:07:16;23.33;;;6.72;;
20802;SDS011;10562;-33.856;151.182;2023-09-19T08:09:46;28.92;;;7.00;;
20802;SDS011;10562;-33.856;151.182;2023-09-19T08:12:17;29.02;;;8.30;;
20802;SDS011;10562;-33.856;151.182;2023-09-19T08:14:50;23.55;;;7.38;;
20802;SDS011;10562;-33.856;151.182;2023-09-19T08:17:21;23.10;;;7.53;;
20802;SDS011;10562;-33.856;151.182;2023-09-19T08:19:52;27.85;;;8.00;;
20802;SDS011;10562;-33.856;151.182;2023-09-19T08:22:25;30.30;;;7.53;;
20802;SDS011;10562;-33.856;151.182;2023-09-19T08:24:57;29.00;;;8.68;;
20802;SDS011;10562;-33.856;151.182;2023-09-19T08:27:28;26.15;;;7.55;;
20802;SDS011;10562;-33.856;151.182;2023-09-19T08:29:58;24.25;;;7.28;;
20802;SDS011;10562;-33.856;151.182;2023-09-19T08:32:30;22.83;;;7.18;;
20802;SDS011;10562;-33.856;151.182;2023-09-19T08:35:00;25.40;;;7.50;;
20802;SDS011;10562;-33.856;151.182;2023-09-19T08:37:33;22.98;;;7.68;;
20802;SDS011;10562;-33.856;151.182;2023-09-19T08:40:04;27.15;;;8.05;;
20802;SDS011;10562;-33.856;151.182;2023-09-19T08:42:49;27.27;;;8.40;;
20802;SDS011;10562;-33.856;151.182;2023-09-19T08:45:21;27.70;;;9.07;;
20802;SDS011;10562;-33.856;151.182;2023-09-19T08:47:56;28.95;;;8.23;;
20802;SDS011;10562;-33.856;151.182;2023-09-19T08:50:42;32.20;;;8.95;;
20802;SDS011;10562;-33.856;151.182;2023-09-19T08:53:30;22.10;;;7.30;;
20802;SDS011;10562;-33.856;151.182;2023-09-19T08:56:06;30.05;;;7.53;;
20802;SDS011;10562;-33.856;151.182;2023-09-19T08:58:41;28.75;;;7.70;;
20802;SDS011;10562;-33.856;151.182;2023-09-19T09:01:17;26.13;;;7.97;;
20802;SDS011;10562;-33.856;151.182;2023-09-19T09:03:51;26.92;;;7.63;;
20802;SDS011;10562;-33.856;151.182;2023-09-19T09:06:23;24.10;;;7.72;;
20802;SDS011;10562;-33.856;151.182;2023-09-19T09:08:56;27.17;;;7.82;;
20802;SDS011;10562;-33.856;151.182;2023-09-19T09:11:27;27.75;;;7.40;;
20802;SDS011;10562;-33.856;151.182;2023-09-19T09:13:59;23.02;;;7.82;;
20802;SDS011;10562;-33.856;151.182;2023-09-19T09:16:30;26.55;;;8.02;;
20802;SDS011;10562;-33.856;151.182;2023-09-19T09:19:00;31.13;;;7.63;;
20802;SDS011;10562;-33.856;151.182;2023-09-19T09:21:31;23.63;;;7.18;;
20802;SDS011;10562;-33.856;151.182;2023-09-19T09:27:00;26.58;;;7.90;;
20802;SDS011;10562;-33.856;151.182;2023-09-19T09:29:41;23.83;;;7.65;;
20802;SDS011;10562;-33.856;151.182;2023-09-19T09:32:19;30.92;;;7.80;;
20802;SDS011;10562;-33.856;151.182;2023-09-19T09:34:52;25.52;;;7.45;;
20802;SDS011;10562;-33.856;151.182;2023-09-19T09:37:23;27.02;;;7.82;;
20802;SDS011;10562;-33.856;151.182;2023-09-19T09:39:58;27.75;;;7.88;;
20802;SDS011;10562;-33.856;151.182;2023-09-19T09:42:45;30.10;;;8.20;;
20802;SDS011;10562;-33.856;151.182;2023-09-19T09:45:18;30.33;;;8.20;;
20802;SDS011;10562;-33.856;151.182;2023-09-19T09:47:57;25.70;;;7.95;;
20802;SDS011;10562;-33.856;151.182;2023-09-19T09:50:30;24.98;;;8.02;;
20802;SDS011;10562;-33.856;151.182;2023-09-19T09:53:20;29.35;;;7.97;;
20802;SDS011;10562;-33.856;151.182;2023-09-19T09:56:00;30.02;;;8.23;;
20802;SDS011;10562;-33.856;151.182;2023-09-19T09:58:32;26.67;;;7.88;;
20802;SDS011;10562;-33.856;151.182;2023-09-19T10:01:03;25.90;;;7.70;;
20802;SDS011;10562;-33.856;151.182;2023-09-19T10:03:37;25.40;;;8.35;;
20802;SDS011;10562;-33.856;151.182;2023-09-19T10:06:10;21.98;;;7.22;;
20802;SDS011;10562;-33.856;151.182;2023-09-19T10:09:04;26.90;;;7.72;;
20802;SDS011;10562;-33.856;151.182;2023-09-19T10:11:45;31.30;;;7.88;;
20802;SDS011;10562;-33.856;151.182;2023-09-19T10:14:24;27.77;;;8.15;;
20802;SDS011;10562;-33.856;151.182;2023-09-19T10:16:58;24.27;;;7.88;;
20802;SDS011;10562;-33.856;151.182;2023-09-19T10:19:36;27.33;;;7.50;;
20802;SDS011;10562;-33.856;151.182;2023-09-19T10:22:15;25.45;;;8.02;;
20802;SDS011;10562;-33.856;151.182;2023-09-19T10:24:49;26.63;;;7.60;;
20802;SDS011;10562;-33.856;151.182;2023-09-19T10:27:25;34.05;;;8.60;;
20802;SDS011;10562;-33.856;151.182;2023-09-19T10:30:04;26.92;;;8.32;;
20802;SDS011;10562;-33.856;151.182;2023-09-19T10:32:37;29.00;;;7.95;;
20802;SDS011;10562;-33.856;151.182;2023-09-19T10:35:13;29.42;;;7.90;;
20802;SDS011;10562;-33.856;151.182;2023-09-19T10:37:46;31.38;;;8.63;;
20802;SDS011;10562;-33.856;151.182;2023-09-19T10:40:19;27.20;;;8.05;;
20802;SDS011;10562;-33.856;151.182;2023-09-19T10:43:01;37.25;;;8.80;;
20802;SDS011;10562;-33.856;151.182;2023-09-19T10:45:33;38.83;;;8.52;;
20802;SDS011;10562;-33.856;151.182;2023-09-19T10:48:06;29.52;;;7.82;;
20802;SDS011;10562;-33.856;151.182;2023-09-19T10:50:43;32.22;;;7.97;;
20802;SDS011;10562;-33.856;151.182;2023-09-19T10:53:16;35.20;;;8.38;;
20802;SDS011;10562;-33.856;151.182;2023-09-19T10:55:50;36.30;;;8.77;;
20802;SDS011;10562;-33.856;151.182;2023-09-19T10:58:31;32.72;;;8.38;;
20802;SDS011;10562;-33.856;151.182;2023-09-19T11:01:05;34.13;;;9.23;;
20802;SDS011;10562;-33.856;151.182;2023-09-19T11:03:38;38.58;;;8.45;;
20802;SDS011;10562;-33.856;151.182;2023-09-19T11:06:12;30.17;;;8.45;;
20802;SDS011;10562;-33.856;151.182;2023-09-19T11:08:57;33.58;;;8.30;;
20802;SDS011;10562;-33.856;151.182;2023-09-19T11:11:45;34.92;;;8.77;;
20802;SDS011;10562;-33.856;151.182;2023-09-19T11:14:41;33.30;;;8.82;;
20802;SDS011;10562;-33.856;151.182;2023-09-19T11:17:31;29.17;;;7.75;;
20802;SDS011;10562;-33.856;151.182;2023-09-19T11:20:18;30.23;;;8.23;;
20802;SDS011;10562;-33.856;151.182;2023-09-19T11:26:00;28.98;;;7.13;;
20802;SDS011;10562;-33.856;151.182;2023-09-19T11:28:31;25.83;;;7.28;;
20802;SDS011;10562;-33.856;151.182;2023-09-19T11:40:36;22.35;;;6.65;;
20802;SDS011;10562;-33.856;151.182;2023-09-19T11:46:03;20.25;;;6.97;;
20802;SDS011;10562;-33.856;151.182;2023-09-19T11:48:35;20.55;;;6.75;;
20802;SDS011;10562;-33.856;151.182;2023-09-19T11:51:16;19.58;;;7.13;;
20802;SDS011;10562;-33.856;151.182;2023-09-19T11:53:49;18.23;;;7.28;;
20802;SDS011;10562;-33.856;151.182;2023-09-19T11:56:20;21.52;;;6.40;;
20802;SDS011;10562;-33.856;151.182;2023-09-19T11:58:54;17.73;;;6.40;;
20802;SDS011;10562;-33.856;151.182;2023-09-19T12:01:29;23.38;;;7.15;;
20802;SDS011;10562;-33.856;151.182;2023-09-19T12:04:01;21.85;;;6.90;;
20802;SDS011;10562;-33.856;151.182;2023-09-19T12:06:34;18.67;;;6.55;;
20802;SDS011;10562;-33.856;151.182;2023-09-19T12:09:12;21.98;;;6.80;;
20802;SDS011;10562;-33.856;151.182;2023-09-19T12:11:43;19.40;;;6.50;;
20802;SDS011;10562;-33.856;151.182;2023-09-19T12:14:21;23.35;;;6.75;;
20802;SDS011;10562;-33.856;151.182;2023-09-19T12:16:54;23.58;;;7.32;;
20802;SDS011;10562;-33.856;151.182;2023-09-19T12:19:26;20.08;;;6.57;;
20802;SDS011;10562;-33.856;151.182;2023-09-19T12:22:00;19.95;;;6.75;;
20802;SDS011;10562;-33.856;151.182;2023-09-19T12:24:32;22.90;;;7.22;;
20802;SDS011;10562;-33.856;151.182;2023-09-19T12:27:06;19.65;;;6.60;;
20802;SDS011;10562;-33.856;151.182;2023-09-19T12:29:47;16.33;;;6.57;;
20802;SDS011;10562;-33.856;151.182;2023-09-19T12:32:23;22.55;;;6.75;;
20802;SDS011;10562;-33.856;151.182;2023-09-19T12:35:06;21.23;;;7.05;;
20802;SDS011;10562;-33.856;151.182;2023-09-19T12:37:44;17.83;;;6.40;;
20802;SDS011;10562;-33.856;151.182;2023-09-19T12:40:21;16.58;;;5.90;;
20802;SDS011;10562;-33.856;151.182;2023-09-19T12:42:54;18.58;;;5.90;;
20802;SDS011;10562;-33.856;151.182;2023-09-19T12:45:28;15.07;;;5.88;;
20802;SDS011;10562;-33.856;151.182;2023-09-19T12:48:19;15.68;;;5.63;;
20802;SDS011;10562;-33.856;151.182;2023-09-19T12:51:02;11.38;;;4.88;;
20802;SDS011;10562;-33.856;151.182;2023-09-19T12:53:36;12.32;;;4.63;;
20802;SDS011;10562;-33.856;151.182;2023-09-19T12:56:08;12.27;;;4.82;;
20802;SDS011;10562;-33.856;151.182;2023-09-19T12:58:51;9.38;;;4.50;;
20802;SDS011;10562;-33.856;151.182;2023-09-19T13:01:23;9.15;;;4.40;;
20802;SDS011;10562;-33.856;151.182;2023-09-19T13:04:13;8.88;;;4.30;;
20802;SDS011;10562;-33.856;151.182;2023-09-19T13:06:52;7.53;;;3.85;;
20802;SDS011;10562;-33.856;151.182;2023-09-19T13:09:28;8.02;;;3.88;;
20802;SDS011;10562;-33.856;151.182;2023-09-19T13:12:00;6.18;;;3.88;;
20802;SDS011;10562;-33.856;151.182;2023-09-19T13:14:33;8.20;;;3.72;;
20802;SDS011;10562;-33.856;151.182;2023-09-19T13:17:07;6.22;;;3.55;;
20802;SDS011;10562;-33.856;151.182;2023-09-19T13:19:43;5.60;;;3.70;;
20802;SDS011;10562;-33.856;151.182;2023-09-19T13:25:10;7.57;;;3.97;;
20802;SDS011;10562;-33.856;151.182;2023-09-19T13:27:44;6.10;;;3.70;;
20802;SDS011;10562;-33.856;151.182;2023-09-19T13:30:17;7.80;;;3.78;;
20802;SDS011;10562;-33.856;151.182;2023-09-19T13:32:48;5.95;;;3.67;;
20802;SDS011;10562;-33.856;151.182;2023-09-19T13:35:20;7.82;;;3.90;;
20802;SDS011;10562;-33.856;151.182;2023-09-19T13:37:50;6.30;;;3.90;;
20802;SDS011;10562;-33.856;151.182;2023-09-19T13:40:23;6.97;;;3.80;;
20802;SDS011;10562;-33.856;151.182;2023-09-19T13:42:56;9.15;;;4.10;;
20802;SDS011;10562;-33.856;151.182;2023-09-19T13:45:27;6.10;;;3.47;;
20802;SDS011;10562;-33.856;151.182;2023-09-19T13:47:59;5.32;;;3.42;;
20802;SDS011;10562;-33.856;151.182;2023-09-19T13:50:29;6.38;;;3.83;;
20802;SDS011;10562;-33.856;151.182;2023-09-19T13:53:00;8.70;;;3.70;;
20802;SDS011;10562;-33.856;151.182;2023-09-19T13:55:33;7.65;;;4.00;;
20802;SDS011;10562;-33.856;151.182;2023-09-19T13:58:04;6.65;;;3.78;;
20802;SDS011;10562;-33.856;151.182;2023-09-19T14:00:37;6.65;;;3.72;;
20802;SDS011;10562;-33.856;151.182;2023-09-19T14:03:07;7.63;;;3.80;;
20802;SDS011;10562;-33.856;151.182;2023-09-19T14:05:39;7.70;;;3.90;;
20802;SDS011;10562;-33.856;151.182;2023-09-19T14:08:10;5.90;;;3.67;;
20802;SDS011;10562;-33.856;151.182;2023-09-19T14:10:43;6.30;;;3.40;;
20802;SDS011;10562;-33.856;151.182;2023-09-19T14:13:14;9.15;;;3.70;;
20802;SDS011;10562;-33.856;151.182;2023-09-19T14:15:46;10.00;;;3.85;;
20802;SDS011;10562;-33.856;151.182;2023-09-19T14:18:17;11.10;;;3.97;;
20802;SDS011;10562;-33.856;151.182;2023-09-19T14:20:48;6.38;;;4.03;;
20802;SDS011;10562;-33.856;151.182;2023-09-19T14:23:19;6.47;;;3.60;;
20802;SDS011;10562;-33.856;151.182;2023-09-19T14:25:52;5.38;;;3.53;;
20802;SDS011;10562;-33.856;151.182;2023-09-19T14:28:22;8.25;;;3.80;;
20802;SDS011;10562;-33.856;151.182;2023-09-19T14:30:53;8.48;;;4.13;;
20802;SDS011;10562;-33.856;151.182;2023-09-19T14:33:24;5.40;;;3.72;;
20802;SDS011;10562;-33.856;151.182;2023-09-19T14:35:55;7.85;;;3.90;;
20802;SDS011;10562;-33.856;151.182;2023-09-19T14:38:26;10.18;;;4.10;;
20802;SDS011;10562;-33.856;151.182;2023-09-19T14:41:02;6.88;;;3.72;;
20802;SDS011;10562;-33.856;151.182;2023-09-19T14:43:33;8.85;;;3.35;;
20802;SDS011;10562;-33.856;151.182;2023-09-19T14:46:04;6.47;;;3.83;;
20802;SDS011;10562;-33.856;151.182;2023-09-19T14:48:36;8.15;;;3.97;;
20802;SDS011;10562;-33.856;151.182;2023-09-19T14:51:07;8.25;;;3.67;;
20802;SDS011;10562;-33.856;151.182;2023-09-19T14:53:38;6.75;;;3.88;;
20802;SDS011;10562;-33.856;151.182;2023-09-19T14:56:11;11.30;;;4.18;;
20802;SDS011;10562;-33.856;151.182;2023-09-19T14:58:44;5.72;;;3.60;;